sensor_id;sensor_type;location;lat;lon;timestamp;temperature;humidity
25652;DHT22;13508;50.734;4.232;2024-03-02T00:00:02;6.70;99.90
25652;DHT22;13508;50.734;4.232;2024-03-02T00:03:12;6.60;99.90
25652;DHT22;13508;50.734;4.232;2024-03-02T00:06:20;6.70;99.90
25652;DHT22;13508;50.734;4.232;2024-03-02T00:09:23;6.70;99.90
25652;DHT22;13508;50.734;4.232;2024-03-02T00:12:27;6.80;99.90
25652;DHT22;13508;50.734;4.232;2024-03-02T00:15:51;6.80;99.90
25652;DHT22;13508;50.734;4.232;2024-03-02T00:18:55;6.80;99.90
25652;DHT22;13508;50.734;4.232;2024-03-02T00:22:01;6.80;99.90
25652;DHT22;13508;50.734;4.232;2024-03-02T00:25:05;6.80;99.90
25652;DHT22;13508;50.734;4.232;2024-03-02T00:31:23;6.80;99.90
25652;DHT22;13508;50.734;4.232;2024-03-02T00:34:29;6.80;99.90
25652;DHT22;13508;50.734;4.232;2024-03-02T00:37:32;6.70;99.90
25652;DHT22;13508;50.734;4.232;2024-03-02T00:40:36;6.80;99.90
25652;DHT22;13508;50.734;4.232;2024-03-02T00:43:57;6.90;99.90
25652;DHT22;13508;50.734;4.232;2024-03-02T00:47:00;6.90;99.90
25652;DHT22;13508;50.734;4.232;2024-03-02T00:50:05;6.80;99.90
25652;DHT22;13508;50.734;4.232;2024-03-02T00:53:12;6.80;99.90
25652;DHT22;13508;50.734;4.232;2024-03-02T00:56:16;6.80;99.90
25652;DHT22;13508;50.734;4.232;2024-03-02T00:59:19;6.80;99.90
25652;DHT22;13508;50.734;4.232;2024-03-02T01:02:22;6.80;99.90
25652;DHT22;13508;50.734;4.232;2024-03-02T01:05:26;6.80;99.90
25652;DHT22;13508;50.734;4.232;2024-03-02T01:08:29;6.80;99.90
25652;DHT22;13508;50.734;4.232;2024-03-02T01:11:33;6.80;99.90
25652;DHT22;13508;50.734;4.232;2024-03-02T01:14:36;6.90;99.90
25652;DHT22;13508;50.734;4.232;2024-03-02T01:17:40;6.90;99.90
25652;DHT22;13508;50.734;4.232;2024-03-02T01:20:43;6.80;99.90
25652;DHT22;13508;50.734;4.232;2024-03-02T01:23:47;6.80;99.90
25652;DHT22;13508;50.734;4.232;2024-03-02T01:26:50;6.90;99.90
25652;DHT22;13508;50.734;4.232;2024-03-02T01:29:54;6.90;99.90
25652;DHT22;13508;50.734;4.232;2024-03-02T01:32:58;6.90;99.90
25652;DHT22;13508;50.734;4.232;2024-03-02T01:36:03;6.90;99.90
25652;DHT22;13508;50.734;4.232;2024-03-02T01:39:07;6.90;99.90
25652;DHT22;13508;50.734;4.232;2024-03-02T01:42:12;7.00;99.90
25652;DHT22;13508;50.734;4.232;2024-03-02T01:45:16;7.00;99.90
25652;DHT22;13508;50.734;4.232;2024-03-02T01:48:22;6.90;99.90
25652;DHT22;13508;50.734;4.232;2024-03-02T01:51:25;6.90;99.90
25652;DHT22;13508;50.734;4.232;2024-03-02T01:54:31;6.90;99.90
25652;DHT22;13508;50.734;4.232;2024-03-02T01:57:34;7.10;99.90
25652;DHT22;13508;50.734;4.232;2024-03-02T02:00:38;7.20;99.90
25652;DHT22;13508;50.734;4.232;2024-03-02T02:03:42;7.20;99.90
25652;DHT22;13508;50.734;4.232;2024-03-02T02:06:45;7.20;99.90
25652;DHT22;13508;50.734;4.232;2024-03-02T02:09:49;7.10;99.90
25652;DHT22;13508;50.734;4.232;2024-03-02T02:12:52;7.10;99.90
25652;DHT22;13508;50.734;4.232;2024-03-02T02:16:04;7.00;99.90
25652;DHT22;13508;50.734;4.232;2024-03-02T02:19:08;7.20;99.90
25652;DHT22;13508;50.734;4.232;2024-03-02T02:22:12;7.20;99.90
25652;DHT22;13508;50.734;4.232;2024-03-02T02:25:16;7.20;99.90
25652;DHT22;13508;50.734;4.232;2024-03-02T02:28:19;7.10;99.90
25652;DHT22;13508;50.734;4.232;2024-03-02T02:31:23;7.00;99.90
25652;DHT22;13508;50.734;4.232;2024-03-02T02:34:28;7.10;99.90
25652;DHT22;13508;50.734;4.232;2024-03-02T02:37:32;6.90;99.90
25652;DHT22;13508;50.734;4.232;2024-03-02T02:40:35;6.80;99.90
25652;DHT22;13508;50.734;4.232;2024-03-02T02:43:39;6.70;99.90
25652;DHT22;13508;50.734;4.232;2024-03-02T02:46:45;6.70;99.90
25652;DHT22;13508;50.734;4.232;2024-03-02T02:49:48;6.60;99.90
25652;DHT22;13508;50.734;4.232;2024-03-02T02:52:54;6.50;99.90
25652;DHT22;13508;50.734;4.232;2024-03-02T02:55:57;6.40;99.90
25652;DHT22;13508;50.734;4.232;2024-03-02T02:59:01;6.50;99.90
25652;DHT22;13508;50.734;4.232;2024-03-02T03:02:04;6.60;99.90
25652;DHT22;13508;50.734;4.232;2024-03-02T03:05:10;6.70;99.90
25652;DHT22;13508;50.734;4.232;2024-03-02T03:08:13;6.70;99.90
25652;DHT22;13508;50.734;4.232;2024-03-02T03:11:17;6.80;99.90
25652;DHT22;13508;50.734;4.232;2024-03-02T03:14:22;6.70;99.90
25652;DHT22;13508;50.734;4.232;2024-03-02T03:17:26;6.70;99.90
25652;DHT22;13508;50.734;4.232;2024-03-02T03:20:30;6.70;99.90
25652;DHT22;13508;50.734;4.232;2024-03-02T03:23:36;6.80;99.90
25652;DHT22;13508;50.734;4.232;2024-03-02T03:26:42;6.80;99.90
25652;DHT22;13508;50.734;4.232;2024-03-02T03:29:47;6.90;99.90
25652;DHT22;13508;50.734;4.232;2024-03-02T03:32:53;6.90;99.90
25652;DHT22;13508;50.734;4.232;2024-03-02T03:35:57;7.00;99.90
25652;DHT22;13508;50.734;4.232;2024-03-02T03:39:00;7.20;99.90
25652;DHT22;13508;50.734;4.232;2024-03-02T03:42:06;7.40;99.90
25652;DHT22;13508;50.734;4.232;2024-03-02T03:45:10;7.40;99.90
25652;DHT22;13508;50.734;4.232;2024-03-02T03:48:13;7.20;99.90
25652;DHT22;13508;50.734;4.232;2024-03-02T03:51:19;7.10;99.90
25652;DHT22;13508;50.734;4.232;2024-03-02T03:54:23;7.20;99.90
25652;DHT22;13508;50.734;4.232;2024-03-02T03:57:27;7.00;99.90
25652;DHT22;13508;50.734;4.232;2024-03-02T04:00:32;7.10;99.90
25652;DHT22;13508;50.734;4.232;2024-03-02T04:03:36;7.00;99.90
25652;DHT22;13508;50.734;4.232;2024-03-02T04:06:39;6.80;99.90
25652;DHT22;13508;50.734;4.232;2024-03-02T04:09:43;6.80;99.90
25652;DHT22;13508;50.734;4.232;2024-03-02T04:12:46;6.90;99.90
25652;DHT22;13508;50.734;4.232;2024-03-02T04:15:50;6.90;99.90
25652;DHT22;13508;50.734;4.232;2024-03-02T04:18:53;6.80;99.90
25652;DHT22;13508;50.734;4.232;2024-03-02T04:21:57;6.90;99.90
25652;DHT22;13508;50.734;4.232;2024-03-02T04:25:01;6.90;99.90
25652;DHT22;13508;50.734;4.232;2024-03-02T04:28:04;7.00;99.90
25652;DHT22;13508;50.734;4.232;2024-03-02T04:31:08;7.10;99.90
25652;DHT22;13508;50.734;4.232;2024-03-02T04:34:16;7.10;99.90
25652;DHT22;13508;50.734;4.232;2024-03-02T04:37:19;7.30;99.90
25652;DHT22;13508;50.734;4.232;2024-03-02T04:40:23;7.40;99.90
25652;DHT22;13508;50.734;4.232;2024-03-02T04:43:26;7.40;99.90
25652;DHT22;13508;50.734;4.232;2024-03-02T04:46:32;7.10;99.90
25652;DHT22;13508;50.734;4.232;2024-03-02T04:49:36;6.90;99.90
25652;DHT22;13508;50.734;4.232;2024-03-02T04:52:40;7.00;99.90
25652;DHT22;13508;50.734;4.232;2024-03-02T04:55:43;6.80;99.90
25652;DHT22;13508;50.734;4.232;2024-03-02T04:58:47;6.90;99.90
25652;DHT22;13508;50.734;4.232;2024-03-02T05:01:53;6.60;99.90
25652;DHT22;13508;50.734;4.232;2024-03-02T05:04:56;6.60;99.90
25652;DHT22;13508;50.734;4.232;2024-03-02T05:08:00;6.40;99.90
25652;DHT22;13508;50.734;4.232;2024-03-02T05:11:03;6.40;99.90
25652;DHT22;13508;50.734;4.232;2024-03-02T05:14:27;6.30;99.90
25652;DHT22;13508;50.734;4.232;2024-03-02T05:17:31;6.30;99.90
25652;DHT22;13508;50.734;4.232;2024-03-02T05:20:35;6.20;99.90
25652;DHT22;13508;50.734;4.232;2024-03-02T05:23:39;6.20;99.90
25652;DHT22;13508;50.734;4.232;2024-03-02T05:26:42;6.30;99.90
25652;DHT22;13508;50.734;4.232;2024-03-02T05:29:46;6.20;99.90
25652;DHT22;13508;50.734;4.232;2024-03-02T05:32:50;6.20;99.90
25652;DHT22;13508;50.734;4.232;2024-03-02T05:35:53;6.20;99.90
25652;DHT22;13508;50.734;4.232;2024-03-02T05:38:56;6.10;99.90
25652;DHT22;13508;50.734;4.232;2024-03-02T05:41:59;6.30;99.90
25652;DHT22;13508;50.734;4.232;2024-03-02T05:45:03;6.30;99.90
25652;DHT22;13508;50.734;4.232;2024-03-02T05:48:07;6.30;99.90
25652;DHT22;13508;50.734;4.232;2024-03-02T05:51:12;6.20;99.90
25652;DHT22;13508;50.734;4.232;2024-03-02T05:54:15;6.20;99.90
25652;DHT22;13508;50.734;4.232;2024-03-02T05:57:19;6.10;99.90
25652;DHT22;13508;50.734;4.232;2024-03-02T06:00:41;6.00;99.90
25652;DHT22;13508;50.734;4.232;2024-03-02T06:03:44;6.10;99.90
25652;DHT22;13508;50.734;4.232;2024-03-02T06:06:48;6.10;99.90
25652;DHT22;13508;50.734;4.232;2024-03-02T06:09:52;6.00;99.90
25652;DHT22;13508;50.734;4.232;2024-03-02T06:12:56;6.00;99.90
25652;DHT22;13508;50.734;4.232;2024-03-02T06:15:59;5.90;99.90
25652;DHT22;13508;50.734;4.232;2024-03-02T06:19:03;6.00;99.90
25652;DHT22;13508;50.734;4.232;2024-03-02T06:22:06;6.10;99.90
25652;DHT22;13508;50.734;4.232;2024-03-02T06:25:12;6.10;99.90
25652;DHT22;13508;50.734;4.232;2024-03-02T06:28:16;6.30;99.90
25652;DHT22;13508;50.734;4.232;2024-03-02T06:31:20;6.30;99.90
25652;DHT22;13508;50.734;4.232;2024-03-02T06:34:23;6.20;99.90
25652;DHT22;13508;50.734;4.232;2024-03-02T06:37:26;6.30;99.90
25652;DHT22;13508;50.734;4.232;2024-03-02T06:40:29;6.20;99.90
25652;DHT22;13508;50.734;4.232;2024-03-02T06:43:33;6.20;99.90
25652;DHT22;13508;50.734;4.232;2024-03-02T06:46:36;6.30;99.90
25652;DHT22;13508;50.734;4.232;2024-03-02T06:49:39;6.20;99.90
25652;DHT22;13508;50.734;4.232;2024-03-02T06:52:43;6.10;99.90
25652;DHT22;13508;50.734;4.232;2024-03-02T06:55:46;6.00;99.90
25652;DHT22;13508;50.734;4.232;2024-03-02T06:58:49;6.20;99.90
25652;DHT22;13508;50.734;4.232;2024-03-02T07:01:55;6.10;99.90
25652;DHT22;13508;50.734;4.232;2024-03-02T07:05:02;6.20;99.90
25652;DHT22;13508;50.734;4.232;2024-03-02T07:08:05;6.30;99.90
25652;DHT22;13508;50.734;4.232;2024-03-02T07:11:09;6.30;99.90
25652;DHT22;13508;50.734;4.232;2024-03-02T07:14:12;6.20;99.90
25652;DHT22;13508;50.734;4.232;2024-03-02T07:17:16;6.20;99.90
25652;DHT22;13508;50.734;4.232;2024-03-02T07:20:19;6.30;99.90
25652;DHT22;13508;50.734;4.232;2024-03-02T07:23:22;6.40;99.90
25652;DHT22;13508;50.734;4.232;2024-03-02T07:26:31;6.40;99.90
25652;DHT22;13508;50.734;4.232;2024-03-02T07:29:34;6.40;99.90
25652;DHT22;13508;50.734;4.232;2024-03-02T07:32:37;6.50;99.90
25652;DHT22;13508;50.734;4.232;2024-03-02T07:35:43;6.50;99.90
25652;DHT22;13508;50.734;4.232;2024-03-02T07:38:47;6.70;99.90
25652;DHT22;13508;50.734;4.232;2024-03-02T07:41:53;6.80;99.90
25652;DHT22;13508;50.734;4.232;2024-03-02T07:44:56;6.90;99.90
25652;DHT22;13508;50.734;4.232;2024-03-02T07:48:00;6.90;99.90
25652;DHT22;13508;50.734;4.232;2024-03-02T07:51:06;7.10;99.90
25652;DHT22;13508;50.734;4.232;2024-03-02T07:54:10;7.00;99.90
25652;DHT22;13508;50.734;4.232;2024-03-02T07:57:14;7.10;99.90
25652;DHT22;13508;50.734;4.232;2024-03-02T08:00:17;7.20;99.90
25652;DHT22;13508;50.734;4.232;2024-03-02T08:03:23;7.30;99.90
25652;DHT22;13508;50.734;4.232;2024-03-02T08:06:27;7.20;99.90
25652;DHT22;13508;50.734;4.232;2024-03-02T08:09:31;7.30;99.90
25652;DHT22;13508;50.734;4.232;2024-03-02T08:12:34;7.50;99.90
25652;DHT22;13508;50.734;4.232;2024-03-02T08:15:37;7.60;99.90
25652;DHT22;13508;50.734;4.232;2024-03-02T08:18:41;7.60;99.90
25652;DHT22;13508;50.734;4.232;2024-03-02T08:21:45;7.70;99.90
25652;DHT22;13508;50.734;4.232;2024-03-02T08:24:48;7.70;99.90
25652;DHT22;13508;50.734;4.232;2024-03-02T08:27:51;7.60;99.90
25652;DHT22;13508;50.734;4.232;2024-03-02T08:30:54;7.80;99.90
25652;DHT22;13508;50.734;4.232;2024-03-02T08:34:01;7.80;99.90
25652;DHT22;13508;50.734;4.232;2024-03-02T08:37:07;8.00;99.90
25652;DHT22;13508;50.734;4.232;2024-03-02T08:40:11;8.10;99.90
25652;DHT22;13508;50.734;4.232;2024-03-02T08:43:15;8.30;99.90
25652;DHT22;13508;50.734;4.232;2024-03-02T08:46:19;8.30;99.90
25652;DHT22;13508;50.734;4.232;2024-03-02T08:49:23;8.40;99.90
25652;DHT22;13508;50.734;4.232;2024-03-02T08:52:26;8.50;99.90
25652;DHT22;13508;50.734;4.232;2024-03-02T08:55:30;8.70;99.90
25652;DHT22;13508;50.734;4.232;2024-03-02T08:58:36;8.90;99.90
25652;DHT22;13508;50.734;4.232;2024-03-02T09:01:40;9.00;99.90
25652;DHT22;13508;50.734;4.232;2024-03-02T09:04:44;9.10;99.90
25652;DHT22;13508;50.734;4.232;2024-03-02T09:07:48;9.20;99.90
25652;DHT22;13508;50.734;4.232;2024-03-02T09:10:51;9.00;99.90
25652;DHT22;13508;50.734;4.232;2024-03-02T09:13:57;9.10;99.90
25652;DHT22;13508;50.734;4.232;2024-03-02T09:17:01;9.20;99.90
25652;DHT22;13508;50.734;4.232;2024-03-02T09:20:05;9.20;99.90
25652;DHT22;13508;50.734;4.232;2024-03-02T09:23:11;9.40;99.90
25652;DHT22;13508;50.734;4.232;2024-03-02T09:26:17;9.30;99.90
25652;DHT22;13508;50.734;4.232;2024-03-02T09:29:24;9.60;99.90
25652;DHT22;13508;50.734;4.232;2024-03-02T09:32:28;9.80;99.90
25652;DHT22;13508;50.734;4.232;2024-03-02T09:35:34;10.10;99.90
25652;DHT22;13508;50.734;4.232;2024-03-02T09:38:37;10.40;99.90
25652;DHT22;13508;50.734;4.232;2024-03-02T09:41:41;10.80;99.90
25652;DHT22;13508;50.734;4.232;2024-03-02T09:44:44;10.90;99.90
25652;DHT22;13508;50.734;4.232;2024-03-02T09:47:51;10.90;99.90
25652;DHT22;13508;50.734;4.232;2024-03-02T09:50:54;10.90;99.90
25652;DHT22;13508;50.734;4.232;2024-03-02T09:54:01;11.20;99.90
25652;DHT22;13508;50.734;4.232;2024-03-02T09:57:05;12.40;99.90
25652;DHT22;13508;50.734;4.232;2024-03-02T10:00:09;13.70;99.90
25652;DHT22;13508;50.734;4.232;2024-03-02T10:03:20;13.00;99.90
25652;DHT22;13508;50.734;4.232;2024-03-02T10:06:25;12.60;99.90
25652;DHT22;13508;50.734;4.232;2024-03-02T10:09:35;12.30;99.90
25652;DHT22;13508;50.734;4.232;2024-03-02T10:12:38;12.40;99.90
25652;DHT22;13508;50.734;4.232;2024-03-02T10:15:41;12.50;99.90
25652;DHT22;13508;50.734;4.232;2024-03-02T10:18:44;13.30;99.90
25652;DHT22;13508;50.734;4.232;2024-03-02T10:21:51;13.20;99.90
25652;DHT22;13508;50.734;4.232;2024-03-02T10:24:55;13.10;99.90
25652;DHT22;13508;50.734;4.232;2024-03-02T10:28:01;12.90;99.90
25652;DHT22;13508;50.734;4.232;2024-03-02T10:31:04;12.50;99.90
25652;DHT22;13508;50.734;4.232;2024-03-02T10:34:09;12.30;99.90
25652;DHT22;13508;50.734;4.232;2024-03-02T10:37:12;12.30;99.90
25652;DHT22;13508;50.734;4.232;2024-03-02T10:40:16;12.30;99.90
25652;DHT22;13508;50.734;4.232;2024-03-02T10:43:20;12.30;99.90
25652;DHT22;13508;50.734;4.232;2024-03-02T10:46:28;12.20;99.90
25652;DHT22;13508;50.734;4.232;2024-03-02T10:49:34;11.90;99.90
25652;DHT22;13508;50.734;4.232;2024-03-02T10:52:39;11.80;99.90
25652;DHT22;13508;50.734;4.232;2024-03-02T10:55:46;11.60;99.90
25652;DHT22;13508;50.734;4.232;2024-03-02T10:58:59;11.90;99.90
25652;DHT22;13508;50.734;4.232;2024-03-02T11:02:04;11.90;99.90
25652;DHT22;13508;50.734;4.232;2024-03-02T11:05:11;12.10;99.90
25652;DHT22;13508;50.734;4.232;2024-03-02T11:08:18;12.00;99.90
25652;DHT22;13508;50.734;4.232;2024-03-02T11:11:30;11.90;99.90
25652;DHT22;13508;50.734;4.232;2024-03-02T11:14:40;12.40;99.90
25652;DHT22;13508;50.734;4.232;2024-03-02T11:17:44;12.90;99.90
25652;DHT22;13508;50.734;4.232;2024-03-02T11:20:48;12.60;99.90
25652;DHT22;13508;50.734;4.232;2024-03-02T11:23:51;12.50;99.90
25652;DHT22;13508;50.734;4.232;2024-03-02T11:26:55;12.40;99.90
25652;DHT22;13508;50.734;4.232;2024-03-02T11:29:59;12.30;99.90
25652;DHT22;13508;50.734;4.232;2024-03-02T11:33:09;11.90;99.90
25652;DHT22;13508;50.734;4.232;2024-03-02T11:36:12;12.20;99.90
25652;DHT22;13508;50.734;4.232;2024-03-02T11:39:16;12.20;99.90
25652;DHT22;13508;50.734;4.232;2024-03-02T11:42:20;12.30;99.90
25652;DHT22;13508;50.734;4.232;2024-03-02T11:45:27;12.40;99.90
25652;DHT22;13508;50.734;4.232;2024-03-02T11:48:31;12.60;99.90
25652;DHT22;13508;50.734;4.232;2024-03-02T11:51:35;12.80;99.90
25652;DHT22;13508;50.734;4.232;2024-03-02T11:54:40;13.70;99.90
25652;DHT22;13508;50.734;4.232;2024-03-02T11:57:48;13.80;99.90
25652;DHT22;13508;50.734;4.232;2024-03-02T12:00:52;14.40;99.90
25652;DHT22;13508;50.734;4.232;2024-03-02T12:03:56;14.00;99.90
25652;DHT22;13508;50.734;4.232;2024-03-02T12:07:04;13.70;99.90
25652;DHT22;13508;50.734;4.232;2024-03-02T12:10:08;13.80;99.90
25652;DHT22;13508;50.734;4.232;2024-03-02T12:13:12;14.30;99.90
25652;DHT22;13508;50.734;4.232;2024-03-02T12:16:23;14.30;99.90
25652;DHT22;13508;50.734;4.232;2024-03-02T12:19:27;14.50;99.90
25652;DHT22;13508;50.734;4.232;2024-03-02T12:22:32;15.50;99.90
25652;DHT22;13508;50.734;4.232;2024-03-02T12:25:36;16.00;99.90
25652;DHT22;13508;50.734;4.232;2024-03-02T12:28:40;16.40;99.90
25652;DHT22;13508;50.734;4.232;2024-03-02T12:31:43;16.30;99.90
25652;DHT22;13508;50.734;4.232;2024-03-02T12:34:50;16.40;99.90
25652;DHT22;13508;50.734;4.232;2024-03-02T12:37:54;16.20;99.90
25652;DHT22;13508;50.734;4.232;2024-03-02T12:40:58;16.00;99.90
25652;DHT22;13508;50.734;4.232;2024-03-02T12:44:02;15.30;99.90
25652;DHT22;13508;50.734;4.232;2024-03-02T12:47:05;14.20;99.90
25652;DHT22;13508;50.734;4.232;2024-03-02T12:50:10;13.50;99.90
25652;DHT22;13508;50.734;4.232;2024-03-02T12:53:16;13.60;99.90
25652;DHT22;13508;50.734;4.232;2024-03-02T12:56:20;14.00;99.90
25652;DHT22;13508;50.734;4.232;2024-03-02T12:59:24;13.80;99.90
25652;DHT22;13508;50.734;4.232;2024-03-02T13:02:30;13.60;99.90
25652;DHT22;13508;50.734;4.232;2024-03-02T13:05:34;13.50;99.90
25652;DHT22;13508;50.734;4.232;2024-03-02T13:08:38;13.40;99.90
25652;DHT22;13508;50.734;4.232;2024-03-02T13:11:42;13.30;99.90
25652;DHT22;13508;50.734;4.232;2024-03-02T13:14:49;13.30;99.90
25652;DHT22;13508;50.734;4.232;2024-03-02T13:17:53;13.30;99.90
25652;DHT22;13508;50.734;4.232;2024-03-02T13:20:57;13.20;99.90
25652;DHT22;13508;50.734;4.232;2024-03-02T13:24:01;13.30;99.90
25652;DHT22;13508;50.734;4.232;2024-03-02T13:27:04;13.60;99.90
25652;DHT22;13508;50.734;4.232;2024-03-02T13:30:10;14.20;99.90
25652;DHT22;13508;50.734;4.232;2024-03-02T13:33:14;14.50;99.90
25652;DHT22;13508;50.734;4.232;2024-03-02T13:36:20;14.70;99.90
25652;DHT22;13508;50.734;4.232;2024-03-02T13:39:24;14.60;99.90
25652;DHT22;13508;50.734;4.232;2024-03-02T13:42:28;14.40;99.90
25652;DHT22;13508;50.734;4.232;2024-03-02T13:45:31;14.30;99.90
25652;DHT22;13508;50.734;4.232;2024-03-02T13:48:35;13.90;99.90
25652;DHT22;13508;50.734;4.232;2024-03-02T13:51:40;13.50;99.90
25652;DHT22;13508;50.734;4.232;2024-03-02T13:54:45;13.50;99.90
25652;DHT22;13508;50.734;4.232;2024-03-02T13:57:48;13.20;99.90
25652;DHT22;13508;50.734;4.232;2024-03-02T14:00:53;13.20;99.90
25652;DHT22;13508;50.734;4.232;2024-03-02T14:03:57;13.20;99.90
25652;DHT22;13508;50.734;4.232;2024-03-02T14:07:03;13.50;99.90
25652;DHT22;13508;50.734;4.232;2024-03-02T14:10:06;13.40;99.90
25652;DHT22;13508;50.734;4.232;2024-03-02T14:13:09;13.30;99.90
25652;DHT22;13508;50.734;4.232;2024-03-02T14:16:13;13.10;99.90
25652;DHT22;13508;50.734;4.232;2024-03-02T14:19:17;13.00;99.90
25652;DHT22;13508;50.734;4.232;2024-03-02T14:22:20;13.00;99.90
25652;DHT22;13508;50.734;4.232;2024-03-02T14:25:24;13.30;99.90
25652;DHT22;13508;50.734;4.232;2024-03-02T14:28:27;13.20;99.90
25652;DHT22;13508;50.734;4.232;2024-03-02T14:31:31;13.30;99.90
25652;DHT22;13508;50.734;4.232;2024-03-02T14:34:35;13.10;99.90
25652;DHT22;13508;50.734;4.232;2024-03-02T14:37:39;13.20;99.90
25652;DHT22;13508;50.734;4.232;2024-03-02T14:40:42;13.30;99.90
25652;DHT22;13508;50.734;4.232;2024-03-02T14:43:46;13.40;99.90
25652;DHT22;13508;50.734;4.232;2024-03-02T14:46:52;13.40;99.90
25652;DHT22;13508;50.734;4.232;2024-03-02T14:49:58;13.20;99.90
25652;DHT22;13508;50.734;4.232;2024-03-02T14:53:04;13.10;99.90
25652;DHT22;13508;50.734;4.232;2024-03-02T14:56:10;13.00;99.90
25652;DHT22;13508;50.734;4.232;2024-03-02T14:59:13;12.70;99.90
25652;DHT22;13508;50.734;4.232;2024-03-02T15:02:17;12.70;99.90
25652;DHT22;13508;50.734;4.232;2024-03-02T15:05:20;13.10;99.90
25652;DHT22;13508;50.734;4.232;2024-03-02T15:08:24;13.30;99.90
25652;DHT22;13508;50.734;4.232;2024-03-02T15:11:32;13.30;99.90
25652;DHT22;13508;50.734;4.232;2024-03-02T15:14:36;13.10;99.90
25652;DHT22;13508;50.734;4.232;2024-03-02T15:17:41;13.20;99.90
25652;DHT22;13508;50.734;4.232;2024-03-02T15:20:44;13.10;99.90
25652;DHT22;13508;50.734;4.232;2024-03-02T15:23:48;13.20;99.90
25652;DHT22;13508;50.734;4.232;2024-03-02T15:26:51;13.20;99.90
25652;DHT22;13508;50.734;4.232;2024-03-02T15:29:54;13.20;99.90
25652;DHT22;13508;50.734;4.232;2024-03-02T15:33:02;13.40;99.90
25652;DHT22;13508;50.734;4.232;2024-03-02T15:36:07;13.40;99.90
25652;DHT22;13508;50.734;4.232;2024-03-02T15:39:10;13.30;99.90
25652;DHT22;13508;50.734;4.232;2024-03-02T15:42:14;13.40;99.90
25652;DHT22;13508;50.734;4.232;2024-03-02T15:45:21;13.40;99.90
25652;DHT22;13508;50.734;4.232;2024-03-02T15:48:24;13.30;99.90
25652;DHT22;13508;50.734;4.232;2024-03-02T15:51:27;13.30;99.90
25652;DHT22;13508;50.734;4.232;2024-03-02T15:54:33;13.30;99.90
25652;DHT22;13508;50.734;4.232;2024-03-02T15:57:37;13.20;99.90
25652;DHT22;13508;50.734;4.232;2024-03-02T16:00:40;13.10;99.90
25652;DHT22;13508;50.734;4.232;2024-03-02T16:03:46;13.20;99.90
25652;DHT22;13508;50.734;4.232;2024-03-02T16:06:50;13.20;99.90
25652;DHT22;13508;50.734;4.232;2024-03-02T16:09:56;13.10;99.90
25652;DHT22;13508;50.734;4.232;2024-03-02T16:12:59;13.00;99.90
25652;DHT22;13508;50.734;4.232;2024-03-02T16:16:03;12.90;99.90
25652;DHT22;13508;50.734;4.232;2024-03-02T16:19:07;12.80;99.90
25652;DHT22;13508;50.734;4.232;2024-03-02T16:22:10;12.80;99.90
25652;DHT22;13508;50.734;4.232;2024-03-02T16:25:16;12.90;99.90
25652;DHT22;13508;50.734;4.232;2024-03-02T16:28:22;13.00;99.90
25652;DHT22;13508;50.734;4.232;2024-03-02T16:31:27;13.00;99.90
25652;DHT22;13508;50.734;4.232;2024-03-02T16:34:33;13.10;99.90
25652;DHT22;13508;50.734;4.232;2024-03-02T16:37:37;13.10;99.90
25652;DHT22;13508;50.734;4.232;2024-03-02T16:40:40;13.00;99.90
25652;DHT22;13508;50.734;4.232;2024-03-02T16:43:44;12.90;99.90
25652;DHT22;13508;50.734;4.232;2024-03-02T16:46:48;13.00;99.90
25652;DHT22;13508;50.734;4.232;2024-03-02T16:49:52;13.00;99.90
25652;DHT22;13508;50.734;4.232;2024-03-02T16:52:56;12.90;99.90
25652;DHT22;13508;50.734;4.232;2024-03-02T16:56:00;13.00;99.90
25652;DHT22;13508;50.734;4.232;2024-03-02T16:59:04;12.90;99.90
25652;DHT22;13508;50.734;4.232;2024-03-02T17:02:07;12.80;99.90
25652;DHT22;13508;50.734;4.232;2024-03-02T17:05:10;12.50;99.90
25652;DHT22;13508;50.734;4.232;2024-03-02T17:08:14;12.60;99.90
25652;DHT22;13508;50.734;4.232;2024-03-02T17:11:18;12.50;99.90
25652;DHT22;13508;50.734;4.232;2024-03-02T17:14:21;12.50;99.90
25652;DHT22;13508;50.734;4.232;2024-03-02T17:17:25;12.50;99.90
25652;DHT22;13508;50.734;4.232;2024-03-02T17:20:28;12.50;99.90
25652;DHT22;13508;50.734;4.232;2024-03-02T17:23:32;12.50;99.90
25652;DHT22;13508;50.734;4.232;2024-03-02T17:26:35;12.40;99.90
25652;DHT22;13508;50.734;4.232;2024-03-02T17:29:39;12.40;99.90
25652;DHT22;13508;50.734;4.232;2024-03-02T17:32:42;12.30;99.90
25652;DHT22;13508;50.734;4.232;2024-03-02T17:35:45;12.20;99.90
25652;DHT22;13508;50.734;4.232;2024-03-02T17:38:50;12.10;99.90
25652;DHT22;13508;50.734;4.232;2024-03-02T17:41:53;12.20;99.90
25652;DHT22;13508;50.734;4.232;2024-03-02T17:44:57;12.10;99.90
25652;DHT22;13508;50.734;4.232;2024-03-02T17:48:01;12.00;99.90
25652;DHT22;13508;50.734;4.232;2024-03-02T17:51:06;12.00;99.90
25652;DHT22;13508;50.734;4.232;2024-03-02T17:54:11;12.00;99.90
25652;DHT22;13508;50.734;4.232;2024-03-02T17:57:14;12.00;99.90
25652;DHT22;13508;50.734;4.232;2024-03-02T18:00:20;11.90;99.90
25652;DHT22;13508;50.734;4.232;2024-03-02T18:03:23;11.90;99.90
25652;DHT22;13508;50.734;4.232;2024-03-02T18:06:27;11.80;99.90
25652;DHT22;13508;50.734;4.232;2024-03-02T18:09:30;11.80;99.90
25652;DHT22;13508;50.734;4.232;2024-03-02T18:12:34;11.70;99.90
25652;DHT22;13508;50.734;4.232;2024-03-02T18:15:40;11.70;99.90
25652;DHT22;13508;50.734;4.232;2024-03-02T18:18:43;11.70;99.90
25652;DHT22;13508;50.734;4.232;2024-03-02T18:21:46;11.70;99.90
25652;DHT22;13508;50.734;4.232;2024-03-02T18:24:51;11.70;99.90
25652;DHT22;13508;50.734;4.232;2024-03-02T18:27:54;11.60;99.90
25652;DHT22;13508;50.734;4.232;2024-03-02T18:30:58;11.50;99.90
25652;DHT22;13508;50.734;4.232;2024-03-02T18:34:02;11.50;99.90
25652;DHT22;13508;50.734;4.232;2024-03-02T18:37:07;11.50;99.90
25652;DHT22;13508;50.734;4.232;2024-03-02T18:40:13;11.50;99.90
25652;DHT22;13508;50.734;4.232;2024-03-02T18:43:17;11.50;99.90
25652;DHT22;13508;50.734;4.232;2024-03-02T18:46:20;11.40;99.90
25652;DHT22;13508;50.734;4.232;2024-03-02T18:49:23;11.40;99.90
25652;DHT22;13508;50.734;4.232;2024-03-02T18:52:27;11.30;99.90
25652;DHT22;13508;50.734;4.232;2024-03-02T18:55:30;11.20;99.90
25652;DHT22;13508;50.734;4.232;2024-03-02T18:58:36;11.10;99.90
25652;DHT22;13508;50.734;4.232;2024-03-02T19:01:39;11.00;99.90
25652;DHT22;13508;50.734;4.232;2024-03-02T19:04:43;11.00;99.90
25652;DHT22;13508;50.734;4.232;2024-03-02T19:07:47;11.00;99.90
25652;DHT22;13508;50.734;4.232;2024-03-02T19:10:50;11.00;99.90
25652;DHT22;13508;50.734;4.232;2024-03-02T19:13:54;11.00;99.90
25652;DHT22;13508;50.734;4.232;2024-03-02T19:16:58;11.10;99.90
25652;DHT22;13508;50.734;4.232;2024-03-02T19:20:01;11.10;99.90
25652;DHT22;13508;50.734;4.232;2024-03-02T19:23:05;11.00;99.90
25652;DHT22;13508;50.734;4.232;2024-03-02T19:26:09;11.10;99.90
25652;DHT22;13508;50.734;4.232;2024-03-02T19:29:14;11.10;99.90
25652;DHT22;13508;50.734;4.232;2024-03-02T19:32:17;11.10;99.90
25652;DHT22;13508;50.734;4.232;2024-03-02T19:35:27;11.20;99.90